LIRA Airport Information

Runway Information
Runway 15 Length 7226 ft width 147 ft Elevation 341 ft Threshold N/A Heading 152
Runway 33 Length 7226 ft Width 147 ft Elevation 427 ft Threshold N/A Heading 332
Airport Frequencies
Type ARR Name ROMA ARR Frequency 119.2 MHZ
Type CLD Name CLNC DEL Frequency 119.4 MHZ
Type DIR Name ROMA DIREC Frequency 119.2 MHZ
Type GND Name GND Frequency 121.75 MHZ
Type TWR Name TWR Frequency 120.5 MHZ
Airport Navaids
Type NDB Name Ciampino Frequency 412 KHZ
Type VOR-DME Name Roma Frequency 110800 KHZ
Airport Weather Information & NOTAM
ADDS - METARS form results

(0619 UTC 05 December 2022)
Data provider http://aviationweather.gov/metar/data/
 
METAR text: LIRA 050550Z 17007KT CAVOK 13/10 Q1020
Conditions at: LIRA (CIAMPINO(IT-AFB/, IT) observed 0550 UTC 05 December 2022
Temperature: 13.0°C (55°F)
Dewpoint: 10.0°C (50°F) [RH = 82%]
Pressure (altimeter): 30.12 inches Hg (1020.0 mb)
Winds: from the S (170 degrees) at 8 MPH (7 knots; 3.6 m/s)
Visibility: 6 or more miles (10+ km)
Ceiling: ceiling and visibility are OK
Clouds: unknown
Weather: no significant weather observed at this time

METAR text: LIRA 050520Z 16007KT CAVOK 13/10 Q1020
Conditions at: LIRA (CIAMPINO(IT-AFB/, IT) observed 0520 UTC 05 December 2022
Temperature: 13.0°C (55°F)
Dewpoint: 10.0°C (50°F) [RH = 82%]
Pressure (altimeter): 30.12 inches Hg (1020.0 mb)
Winds: from the SSE (160 degrees) at 8 MPH (7 knots; 3.6 m/s)
Visibility: 6 or more miles (10+ km)
Ceiling: ceiling and visibility are OK
Clouds: unknown
Weather: no significant weather observed at this time

Forecast for: LIRA (CIAMPINO(IT-AFB/, IT)
Text: TAF LIRA 050500Z 0506/0606 16010KT 9999 FEW030
Forecast period: 0600 UTC 05 December 2022 to 0600 UTC 06 December 2022
Forecast type: FROM: standard forecast or significant change
Winds: from the SSE (160 degrees) at 12 MPH (10 knots; 5.1 m/s)
Visibility: 6 or more miles (10+ km)
Ceiling: at least 12,000 feet AGL
Clouds: few clouds at 3000 feet AGL
Weather: no significant weather forecast for this period
Text: TEMPO 0512/0515 RA
Forecast period: 1200 to 1500 UTC 05 December 2022
Forecast type: TEMPORARY: The following changes expected for less than half the time period
Visibility: missing
Ceiling: unknown
Clouds: missing
Weather: RA  (moderate rain)